Time;durP1;ratioP1;P1;durP2;ratioP2;P2;SDS_P1;SDS_P2;PMS_P1;PMS_P2;Temp;Humidity;BMP_temperature;BMP_pressure;BME280_temperature;BME280_humidity;BME280_pressure;Samples;Min_cycle;Max_cycle;Signal;HPM_P1;HPM_P2
2022/03/01 00:02:23;;;;;;;17.80;10.55;;;2.10;99.90;;;;;;6334357;22;20027;-78
2022/03/01 00:04:49;;;;;;;18.58;10.68;;;2.10;99.90;;;;;;6308473;22;20083;-78
2022/03/01 00:07:15;;;;;;;19.40;10.85;;;2.10;99.90;;;;;;6309128;22;20110;-78
2022/03/01 00:09:41;;;;;;;20.08;11.05;;;2.00;99.90;;;;;;6282295;22;20042;-77
2022/03/01 00:12:07;;;;;;;20.20;11.65;;;2.00;99.90;;;;;;6309505;22;20489;-78
2022/03/01 00:14:33;;;;;;;19.52;10.75;;;2.10;99.90;;;;;;6308901;22;20056;-78
2022/03/01 00:16:59;;;;;;;22.50;10.60;;;2.00;99.90;;;;;;6308585;22;20057;-78
2022/03/01 00:19:28;;;;;;;21.35;10.95;;;2.00;99.90;;;;;;6308574;22;20037;-78
2022/03/01 00:21:55;;;;;;;21.70;12.95;;;2.00;99.90;;;;;;6284027;22;20459;-78
2022/03/01 00:24:21;;;;;;;19.20;11.73;;;1.90;99.90;;;;;;6308723;22;20374;-78
2022/03/01 00:26:47;;;;;;;20.63;10.25;;;1.90;99.90;;;;;;6283573;22;20022;-75
2022/03/01 00:29:13;;;;;;;18.70;10.90;;;1.90;99.90;;;;;;6310291;22;20033;-75
2022/03/01 00:31:39;;;;;;;20.88;11.43;;;1.90;99.90;;;;;;6284364;22;20108;-76
2022/03/01 00:34:04;;;;;;;19.85;11.20;;;1.90;99.90;;;;;;6310457;22;20057;-76
2022/03/01 00:36:32;;;;;;;24.88;12.70;;;1.90;99.90;;;;;;6283368;22;20086;-76
2022/03/01 00:38:57;;;;;;;18.17;10.65;;;1.90;99.90;;;;;;6309947;22;20407;-75
2022/03/01 00:41:24;;;;;;;21.52;11.52;;;1.90;99.90;;;;;;6284708;22;20022;-75
2022/03/01 00:43:50;;;;;;;18.90;10.88;;;1.90;99.90;;;;;;6310275;22;20023;-76
2022/03/01 00:46:23;;;;;;;20.83;11.38;;;1.90;99.90;;;;;;6284665;22;20167;-76
2022/03/01 00:48:49;;;;;;;24.75;12.10;;;1.90;99.90;;;;;;6284920;22;20024;-77
2022/03/01 00:51:15;;;;;;;19.33;10.48;;;1.90;99.90;;;;;;6309809;22;20393;-78
2022/03/01 00:53:41;;;;;;;20.35;10.98;;;1.90;99.90;;;;;;6310070;22;20030;-78
2022/03/01 00:56:07;;;;;;;18.98;10.20;;;1.90;99.90;;;;;;6309881;22;20030;-78
2022/03/01 00:58:32;;;;;;;18.52;11.60;;;1.90;99.90;;;;;;6310101;22;20019;-75
2022/03/01 01:00:58;;;;;;;23.00;11.25;;;1.90;99.90;;;;;;6338101;22;20122;-76
2022/03/01 01:03:24;;;;;;;22.83;10.75;;;1.90;99.90;;;;;;6310127;22;20024;-76
2022/03/01 01:05:50;;;;;;;18.05;10.23;;;1.80;99.90;;;;;;6282971;22;20411;-76
2022/03/01 01:08:21;;;;;;;19.38;11.38;;;1.80;99.90;;;;;;6284328;22;20050;-75
2022/03/01 01:10:48;;;;;;;20.48;11.15;;;1.80;99.90;;;;;;6309414;22;20034;-75
2022/03/01 01:13:14;;;;;;;21.63;10.90;;;1.80;99.90;;;;;;6310057;22;20346;-77
2022/03/01 01:15:41;;;;;;;18.25;10.73;;;1.80;99.90;;;;;;6309805;22;20050;-77
2022/03/01 01:18:07;;;;;;;19.15;11.05;;;1.80;99.90;;;;;;6311067;22;20030;-77
2022/03/01 01:20:33;;;;;;;24.92;11.25;;;1.80;99.90;;;;;;6283831;22;20018;-78
2022/03/01 01:22:58;;;;;;;22.33;12.90;;;1.80;99.90;;;;;;6309185;22;20073;-78
2022/03/01 01:25:27;;;;;;;19.75;10.50;;;1.80;99.90;;;;;;6309963;22;20026;-77
2022/03/01 01:27:57;;;;;;;19.40;10.90;;;1.80;99.90;;;;;;6284511;22;20015;-77
2022/03/01 01:30:25;;;;;;;21.20;11.23;;;1.80;99.90;;;;;;6309302;22;20023;-78
2022/03/01 01:32:52;;;;;;;19.38;10.40;;;1.80;99.90;;;;;;6283873;22;20457;-76
2022/03/01 01:35:22;;;;;;;20.30;10.90;;;1.80;99.90;;;;;;6309990;22;20346;-75
2022/03/01 01:38:11;;;;;;;21.15;11.00;;;1.80;99.90;;;;;;6282885;22;20023;-76
2022/03/01 01:40:37;;;;;;;21.55;10.82;;;1.80;99.90;;;;;;6246988;22;20019;-76
2022/03/01 01:43:11;;;;;;;21.23;11.68;;;1.80;99.90;;;;;;6246709;22;20447;-76
2022/03/01 01:45:37;;;;;;;20.23;11.40;;;1.90;99.90;;;;;;6272900;22;20035;-76
2022/03/01 01:48:04;;;;;;;20.02;11.88;;;1.90;99.90;;;;;;6272040;22;20015;-76
2022/03/01 01:50:32;;;;;;;21.98;12.23;;;1.90;99.90;;;;;;6221074;22;20508;-76
2022/03/01 01:52:58;;;;;;;32.60;12.13;;;1.90;99.90;;;;;;6272570;22;20099;-76
2022/03/01 01:55:26;;;;;;;21.73;11.95;;;2.00;99.90;;;;;;6246727;22;20062;-76
2022/03/01 01:57:51;;;;;;;21.83;11.65;;;1.90;99.90;;;;;;6272735;22;20028;-75
2022/03/01 02:00:18;;;;;;;21.30;10.43;;;1.90;99.90;;;;;;6246399;22;20032;-76
2022/03/01 02:02:45;;;;;;;21.80;12.48;;;2.00;99.90;;;;;;6166708;23;20024;-76
2022/03/01 02:05:12;;;;;;;23.08;11.75;;;2.00;99.90;;;;;;6216017;23;20031;-77
2022/03/01 02:07:44;;;;;;;18.85;11.02;;;2.00;99.90;;;;;;6191230;23;20020;-76
2022/03/01 02:10:10;;;;;;;20.17;10.82;;;2.00;99.90;;;;;;6216500;23;20334;-77
2022/03/01 02:12:36;;;;;;;19.02;10.73;;;2.00;99.90;;;;;;6247636;22;20027;-76
2022/03/01 02:15:02;;;;;;;21.67;11.10;;;2.00;99.90;;;;;;6278546;22;20023;-76
2022/03/01 02:17:28;;;;;;;20.40;11.68;;;2.10;99.90;;;;;;6278408;22;20093;-77
2022/03/01 02:19:54;;;;;;;19.17;9.93;;;2.10;99.90;;;;;;6278451;22;20028;-76
2022/03/01 02:22:20;;;;;;;22.45;11.43;;;2.20;99.90;;;;;;6278924;22;20031;-76
2022/03/01 02:24:46;;;;;;;21.95;11.23;;;2.20;99.90;;;;;;6278652;22;20716;-76
2022/03/01 02:27:13;;;;;;;21.60;11.60;;;2.20;99.90;;;;;;6278589;22;20015;-79
2022/03/01 02:29:39;;;;;;;21.63;10.63;;;2.20;99.90;;;;;;6278587;22;20019;-76
2022/03/01 02:32:07;;;;;;;24.88;11.38;;;2.10;99.90;;;;;;6278510;22;20065;-77
2022/03/01 02:34:33;;;;;;;21.27;10.88;;;2.20;99.90;;;;;;6279196;22;20057;-76
2022/03/01 02:36:59;;;;;;;22.55;10.95;;;2.20;99.90;;;;;;6278099;22;20026;-77
2022/03/01 02:39:25;;;;;;;18.27;11.10;;;2.20;99.90;;;;;;6278680;22;20031;-75
2022/03/01 02:41:51;;;;;;;19.08;10.18;;;2.20;99.90;;;;;;6278155;22;20019;-76
2022/03/01 02:44:17;;;;;;;19.90;11.20;;;2.20;99.90;;;;;;6306266;22;20019;-77
2022/03/01 02:46:43;;;;;;;23.45;10.93;;;2.20;99.90;;;;;;6278260;22;20026;-76
2022/03/01 02:49:10;;;;;;;17.67;10.38;;;2.10;99.90;;;;;;6277899;22;20474;-76
2022/03/01 02:51:44;;;;;;;23.50;11.63;;;2.10;99.90;;;;;;6306401;22;20096;-77
2022/03/01 02:54:16;;;;;;;18.83;11.57;;;2.10;99.90;;;;;;6277778;22;20023;-77
2022/03/01 02:56:41;;;;;;;21.27;11.57;;;2.10;99.90;;;;;;6278493;22;20080;-76
2022/03/01 02:59:08;;;;;;;19.58;10.95;;;2.10;99.90;;;;;;6278805;22;20023;-77
2022/03/01 03:01:34;;;;;;;21.23;11.38;;;2.10;99.90;;;;;;6262507;22;20015;-77
2022/03/01 03:04:00;;;;;;;18.88;10.30;;;2.10;99.90;;;;;;6304112;22;20023;-77
2022/03/01 03:06:33;;;;;;;19.75;11.48;;;2.10;99.90;;;;;;6278313;22;20046;-77
2022/03/01 03:09:05;;;;;;;18.75;10.38;;;2.10;99.90;;;;;;6304092;22;20016;-77
2022/03/01 03:11:31;;;;;;;23.58;11.05;;;2.10;99.90;;;;;;6303972;22;20471;-77
2022/03/01 03:13:57;;;;;;;24.35;12.00;;;2.10;99.90;;;;;;6304079;22;20098;-77
2022/03/01 03:16:23;;;;;;;19.70;11.43;;;2.20;99.90;;;;;;6278262;22;20023;-77
2022/03/01 03:18:49;;;;;;;20.50;11.32;;;2.20;99.90;;;;;;6303180;22;20102;-77
2022/03/01 03:21:16;;;;;;;22.90;12.20;;;2.20;99.90;;;;;;6278494;22;20023;-78
2022/03/01 03:23:50;;;;;;;15.27;10.02;;;2.20;99.90;;;;;;6252594;22;20069;-77
2022/03/01 03:26:16;;;;;;;22.58;13.07;;;2.30;99.90;;;;;;6278277;22;20023;-77
2022/03/01 03:28:42;;;;;;;20.02;11.23;;;2.20;99.90;;;;;;6303578;22;20103;-77
2022/03/01 03:31:07;;;;;;;19.92;11.98;;;2.20;99.90;;;;;;6304371;22;20082;-77
2022/03/01 03:33:33;;;;;;;24.55;12.30;;;2.20;99.90;;;;;;6303713;22;20019;-77
2022/03/01 03:35:59;;;;;;;23.45;11.82;;;2.20;99.90;;;;;;6330700;22;20065;-77
2022/03/01 03:38:26;;;;;;;22.83;13.13;;;2.20;99.90;;;;;;6303899;22;20076;-77
2022/03/01 03:40:53;;;;;;;21.05;11.30;;;2.20;99.90;;;;;;6303825;22;20106;-77
2022/03/01 03:43:20;;;;;;;21.45;12.10;;;2.20;99.90;;;;;;6303674;22;20019;-77
2022/03/01 03:45:46;;;;;;;19.40;10.57;;;2.20;99.90;;;;;;6303964;22;20418;-77
2022/03/01 03:48:12;;;;;;;20.65;11.88;;;2.20;99.90;;;;;;6304537;22;20016;-77
2022/03/01 03:50:38;;;;;;;21.42;11.85;;;2.20;99.90;;;;;;6277558;22;20023;-78
2022/03/01 03:53:04;;;;;;;19.80;11.13;;;2.20;99.90;;;;;;6329947;22;20016;-78
2022/03/01 03:55:30;;;;;;;20.48;12.10;;;2.20;99.90;;;;;;6303887;22;20455;-77
2022/03/01 03:57:56;;;;;;;20.77;11.63;;;2.20;99.90;;;;;;6303693;22;20027;-77
2022/03/01 04:00:22;;;;;;;23.73;12.02;;;2.20;99.90;;;;;;6306348;22;20020;-77
2022/03/01 04:02:51;;;;;;;21.00;12.77;;;2.30;99.90;;;;;;6306334;22;20023;-79
2022/03/01 04:05:17;;;;;;;21.23;12.00;;;2.30;99.90;;;;;;6305943;22;20023;-77
2022/03/01 04:07:44;;;;;;;22.88;13.07;;;2.30;99.90;;;;;;6305536;22;20022;-77
2022/03/01 04:10:15;;;;;;;21.52;12.90;;;2.30;99.90;;;;;;6304821;22;20027;-77
2022/03/01 04:12:43;;;;;;;21.10;12.02;;;2.30;99.90;;;;;;6280342;22;20019;-77
2022/03/01 04:15:10;;;;;;;19.55;11.95;;;2.30;99.90;;;;;;6305856;22;20055;-77
2022/03/01 04:17:36;;;;;;;26.92;12.68;;;2.30;99.90;;;;;;6305811;22;20035;-77
2022/03/01 04:20:03;;;;;;;19.92;10.73;;;2.20;99.90;;;;;;6305722;22;20019;-77
2022/03/01 04:22:29;;;;;;;23.40;11.65;;;2.30;99.90;;;;;;6279841;22;20458;-78
2022/03/01 04:24:56;;;;;;;21.60;11.68;;;2.30;99.90;;;;;;6331629;22;20493;-77
2022/03/01 04:27:22;;;;;;;20.85;11.93;;;2.30;99.90;;;;;;6305924;22;20102;-77
2022/03/01 04:29:48;;;;;;;21.30;11.15;;;2.30;99.90;;;;;;6279872;22;20077;-77
2022/03/01 04:32:14;;;;;;;20.00;11.00;;;2.30;99.90;;;;;;6305408;22;20520;-78
2022/03/01 04:34:41;;;;;;;23.05;11.95;;;2.30;99.90;;;;;;6279160;22;20023;-77
2022/03/01 04:37:08;;;;;;;20.77;11.32;;;2.30;99.90;;;;;;6306018;22;20020;-78
2022/03/01 04:39:35;;;;;;;23.83;11.70;;;2.30;99.90;;;;;;6279784;22;20098;-78
2022/03/01 04:42:01;;;;;;;21.88;12.32;;;2.30;99.90;;;;;;6307084;22;20029;-78
2022/03/01 04:44:27;;;;;;;20.20;12.10;;;2.20;99.90;;;;;;6279338;22;20058;-77
2022/03/01 04:46:53;;;;;;;24.20;12.30;;;2.30;99.90;;;;;;6305266;22;20027;-78
2022/03/01 04:49:18;;;;;;;23.05;12.48;;;2.30;99.90;;;;;;6304571;22;20049;-78
2022/03/01 04:51:44;;;;;;;18.50;12.32;;;2.30;99.90;;;;;;6331535;22;20474;-78
2022/03/01 04:54:10;;;;;;;19.63;11.05;;;2.30;99.90;;;;;;6305590;22;20027;-78
2022/03/01 04:56:37;;;;;;;24.08;12.27;;;2.30;99.90;;;;;;6305364;22;20020;-77
2022/03/01 04:59:03;;;;;;;20.67;11.90;;;2.30;99.90;;;;;;6305244;22;20026;-77
2022/03/01 05:01:29;;;;;;;22.63;11.88;;;2.30;99.90;;;;;;6321233;22;20393;-78
2022/03/01 05:03:55;;;;;;;25.00;12.75;;;2.30;99.90;;;;;;6310457;22;20238;-75
2022/03/01 05:06:21;;;;;;;21.65;12.00;;;2.30;99.90;;;;;;6310510;22;20014;-77
2022/03/01 05:08:46;;;;;;;20.48;12.60;;;2.30;99.90;;;;;;6284638;22;20065;-76
2022/03/01 05:11:12;;;;;;;20.65;11.75;;;2.30;99.90;;;;;;6338496;22;20426;-76
2022/03/01 05:13:38;;;;;;;23.83;12.50;;;2.40;99.90;;;;;;6309880;22;20105;-77
2022/03/01 05:16:04;;;;;;;22.20;11.75;;;2.40;99.90;;;;;;6310415;22;20018;-77
2022/03/01 05:18:30;;;;;;;23.73;12.10;;;2.40;99.90;;;;;;6309756;22;20022;-77
2022/03/01 05:20:56;;;;;;;23.17;12.27;;;2.40;99.90;;;;;;6310330;22;20113;-76
2022/03/01 05:23:22;;;;;;;27.48;13.43;;;2.40;99.90;;;;;;6284411;22;20073;-77
2022/03/01 05:25:48;;;;;;;21.63;11.52;;;2.40;99.90;;;;;;6284095;22;20527;-76
2022/03/01 05:28:31;;;;;;;21.13;12.50;;;2.40;99.90;;;;;;6284200;22;20022;-76
2022/03/01 05:30:57;;;;;;;19.65;11.35;;;2.40;99.90;;;;;;6284655;22;20027;-77
2022/03/01 05:33:22;;;;;;;21.35;12.40;;;2.40;99.90;;;;;;6309808;22;20018;-77
2022/03/01 05:36:03;;;;;;;23.02;13.00;;;2.40;99.90;;;;;;6336356;22;20014;-77
2022/03/01 05:38:41;;;;;;;23.92;12.25;;;2.30;99.90;;;;;;6308421;22;20421;-77
2022/03/01 05:41:08;;;;;;;25.23;13.73;;;2.30;99.90;;;;;;6309860;22;20034;-76
2022/03/01 05:43:35;;;;;;;21.83;12.13;;;2.30;99.90;;;;;;6283986;22;20057;-77
2022/03/01 05:46:01;;;;;;;18.85;10.85;;;2.40;99.90;;;;;;6284585;22;20023;-77
2022/03/01 05:48:27;;;;;;;21.70;12.07;;;2.40;99.90;;;;;;6284587;22;20046;-77
2022/03/01 05:50:53;;;;;;;20.08;11.63;;;2.40;99.90;;;;;;6308847;22;20084;-77
2022/03/01 05:53:19;;;;;;;22.98;12.38;;;2.40;99.90;;;;;;6284092;22;20090;-77
2022/03/01 05:55:46;;;;;;;20.83;11.43;;;2.40;99.90;;;;;;6337926;22;20031;-75
2022/03/01 05:58:12;;;;;;;21.15;12.30;;;2.40;99.90;;;;;;6309701;22;20458;-76
2022/03/01 06:00:38;;;;;;;23.35;12.02;;;2.40;99.90;;;;;;6306058;22;20029;-77
2022/03/01 06:03:08;;;;;;;20.35;12.57;;;2.40;99.90;;;;;;6304453;22;20019;-77
2022/03/01 06:05:35;;;;;;;24.02;11.98;;;2.50;99.90;;;;;;6303397;22;20030;-76
2022/03/01 06:08:03;;;;;;;22.48;12.38;;;2.50;99.90;;;;;;6278714;22;20050;-76
2022/03/01 06:10:31;;;;;;;19.35;11.43;;;2.50;99.90;;;;;;6278661;22;20351;-77
2022/03/01 06:12:57;;;;;;;23.17;12.32;;;2.50;99.90;;;;;;6278914;22;20355;-77
2022/03/01 06:15:23;;;;;;;21.92;12.70;;;2.60;99.90;;;;;;6304823;22;20163;-77
2022/03/01 06:17:49;;;;;;;23.05;12.60;;;2.60;99.90;;;;;;6304495;22;20026;-76
2022/03/01 06:20:15;;;;;;;23.50;12.32;;;2.70;99.90;;;;;;6330642;22;20023;-76
2022/03/01 06:22:41;;;;;;;22.63;12.95;;;2.70;99.90;;;;;;6279625;22;20020;-77
2022/03/01 06:25:08;;;;;;;23.08;13.43;;;2.80;99.90;;;;;;6277729;22;20493;-77
2022/03/01 06:27:39;;;;;;;23.23;13.65;;;2.80;99.90;;;;;;6278425;22;20019;-77
2022/03/01 06:30:12;;;;;;;23.75;12.18;;;2.80;99.90;;;;;;6278681;22;20106;-76
2022/03/01 06:32:38;;;;;;;20.23;12.13;;;2.80;99.90;;;;;;6278365;22;20023;-76
2022/03/01 06:35:05;;;;;;;21.58;12.23;;;2.90;99.90;;;;;;6331195;22;20019;-76
2022/03/01 06:37:46;;;;;;;21.85;11.60;;;2.90;99.90;;;;;;6304256;22;20324;-77
2022/03/01 06:40:31;;;;;;;20.90;12.45;;;2.90;99.90;;;;;;6304478;22;20332;-76
2022/03/01 06:43:00;;;;;;;24.00;13.25;;;2.90;99.90;;;;;;6277903;22;20106;-76
2022/03/01 06:45:26;;;;;;;21.75;12.45;;;2.90;99.90;;;;;;6304306;22;20065;-76
2022/03/01 06:47:52;;;;;;;25.20;12.13;;;2.90;99.90;;;;;;6278426;22;20023;-76
2022/03/01 06:50:27;;;;;;;;;;;2.90;99.90;;;;;;6279737;22;20143;-76
2022/03/01 06:52:54;;;;;;;20.25;11.23;;;2.90;99.90;;;;;;6278461;22;20335;-77
2022/03/01 06:55:23;;;;;;;23.52;12.50;;;2.90;99.90;;;;;;6304451;22;20106;-76
2022/03/01 06:57:49;;;;;;;21.92;11.48;;;3.00;99.90;;;;;;6324951;22;20069;-77
2022/03/01 07:00:16;;;;;;;24.08;12.38;;;3.00;99.90;;;;;;6305260;22;20026;-76
2022/03/01 07:02:42;;;;;;;25.30;11.57;;;3.00;99.90;;;;;;6277218;22;20446;-77
2022/03/01 07:05:12;;;;;;;23.33;13.57;;;3.00;99.90;;;;;;6304094;22;20027;-76
2022/03/01 07:07:38;;;;;;;24.90;12.00;;;3.10;99.90;;;;;;6304138;22;20031;-76
2022/03/01 07:10:06;;;;;;;27.63;12.65;;;3.10;99.90;;;;;;6302851;22;20089;-77
2022/03/01 07:12:40;;;;;;;21.73;12.30;;;3.20;99.90;;;;;;6277331;22;20029;-77
2022/03/01 07:15:07;;;;;;;21.15;11.85;;;3.20;99.90;;;;;;6278517;22;20037;-77
2022/03/01 07:17:33;;;;;;;21.88;12.25;;;3.30;99.90;;;;;;6277728;22;20019;-76
2022/03/01 07:19:59;;;;;;;21.60;13.20;;;3.30;99.90;;;;;;6330426;22;20030;-77
2022/03/01 07:22:25;;;;;;;21.80;11.85;;;3.30;99.90;;;;;;6302532;22;20019;-77
2022/03/01 07:24:51;;;;;;;23.70;12.60;;;3.40;99.90;;;;;;6305660;22;20026;-77
2022/03/01 07:27:16;;;;;;;23.73;12.50;;;3.40;99.90;;;;;;6330108;22;20019;-77
2022/03/01 07:29:42;;;;;;;20.52;11.85;;;3.40;99.90;;;;;;6278283;22;20116;-77
2022/03/01 07:32:11;;;;;;;23.98;12.57;;;3.40;99.90;;;;;;6304021;22;20022;-77
2022/03/01 07:34:37;;;;;;;22.48;11.68;;;3.50;99.90;;;;;;6330025;22;20110;-76
2022/03/01 07:37:05;;;;;;;24.35;13.15;;;3.50;99.90;;;;;;6276289;22;20102;-77
2022/03/01 07:39:31;;;;;;;20.85;11.73;;;3.50;99.90;;;;;;6302775;22;20023;-77
2022/03/01 07:41:57;;;;;;;22.73;12.63;;;3.50;99.90;;;;;;6302912;22;20355;-76
2022/03/01 07:44:23;;;;;;;23.60;13.10;;;3.60;99.90;;;;;;6303743;22;20055;-76
2022/03/01 07:46:49;;;;;;;20.77;12.18;;;3.60;99.90;;;;;;6303725;22;20090;-78
2022/03/01 07:49:15;;;;;;;23.58;12.55;;;3.60;99.90;;;;;;6304146;22;20030;-78
2022/03/01 07:51:40;;;;;;;20.70;12.55;;;3.60;99.90;;;;;;6303954;22;20043;-77
2022/03/01 07:54:10;;;;;;;25.50;12.80;;;3.70;99.90;;;;;;6277757;22;20462;-77
2022/03/01 07:56:36;;;;;;;24.20;13.15;;;3.70;99.90;;;;;;6278075;22;20023;-78
2022/03/01 07:59:02;;;;;;;23.40;12.32;;;3.70;99.90;;;;;;6302320;22;20059;-77
2022/03/01 08:01:34;;;;;;;21.30;12.23;;;3.70;99.90;;;;;;6303362;22;20099;-78
2022/03/01 08:04:00;;;;;;;18.92;10.77;;;3.70;99.90;;;;;;6303609;22;20084;-77
2022/03/01 08:06:26;;;;;;;20.58;11.80;;;3.80;99.90;;;;;;6329913;22;20392;-77
2022/03/01 08:08:52;;;;;;;23.75;12.80;;;3.80;99.90;;;;;;6276462;22;20541;-78
2022/03/01 08:11:18;;;;;;;25.42;12.75;;;3.90;99.90;;;;;;6277917;22;20351;-78
2022/03/01 08:13:44;;;;;;;21.20;12.38;;;3.90;99.90;;;;;;6302739;22;20019;-77
2022/03/01 08:16:10;;;;;;;23.10;13.20;;;3.90;99.90;;;;;;6329786;22;20471;-78
2022/03/01 08:18:36;;;;;;;23.85;13.98;;;4.00;99.90;;;;;;6303792;22;20030;-77
2022/03/01 08:21:02;;;;;;;21.90;12.57;;;4.00;99.90;;;;;;6277872;22;20076;-77
2022/03/01 08:23:28;;;;;;;22.60;12.75;;;4.10;99.90;;;;;;6303530;22;20027;-77
2022/03/01 08:25:54;;;;;;;22.77;12.98;;;4.10;99.90;;;;;;6303743;22;20023;-78
2022/03/01 08:28:20;;;;;;;23.08;13.18;;;4.10;99.90;;;;;;6303597;22;20019;-77
2022/03/01 08:30:46;;;;;;;27.48;14.10;;;4.10;99.90;;;;;;6305597;22;20153;-77
2022/03/01 08:33:16;;;;;;;22.05;12.73;;;4.10;99.90;;;;;;6329786;22;20019;-77
2022/03/01 08:35:42;;;;;;;23.63;13.32;;;4.20;99.90;;;;;;6277815;22;20089;-78
2022/03/01 08:38:07;;;;;;;21.13;12.93;;;4.30;99.90;;;;;;6303531;22;20455;-78
2022/03/01 08:40:37;;;;;;;21.15;12.27;;;4.30;99.90;;;;;;6303418;22;20023;-78
2022/03/01 08:43:04;;;;;;;22.42;12.85;;;4.40;99.90;;;;;;6304081;22;20019;-77
2022/03/01 08:45:31;;;;;;;26.58;13.13;;;4.50;99.90;;;;;;6329435;22;20031;-77
2022/03/01 08:47:57;;;;;;;21.58;12.38;;;4.60;99.90;;;;;;6306510;22;20023;-77
2022/03/01 08:50:22;;;;;;;22.92;12.45;;;4.70;99.90;;;;;;6304906;22;20025;-77
2022/03/01 08:52:49;;;;;;;23.27;13.60;;;4.70;99.90;;;;;;6305059;22;20489;-78
2022/03/01 08:55:15;;;;;;;20.45;13.15;;;4.80;99.90;;;;;;6279247;22;20023;-77
2022/03/01 08:57:41;;;;;;;24.60;13.07;;;4.90;99.90;;;;;;6305370;22;20019;-77
2022/03/01 09:00:11;;;;;;;25.02;13.10;;;4.90;99.90;;;;;;6304339;22;20331;-77
2022/03/01 09:02:38;;;;;;;23.25;12.50;;;5.00;99.90;;;;;;6254644;22;20458;-77
2022/03/01 09:05:08;;;;;;;24.95;12.82;;;5.00;99.90;;;;;;6305826;22;20027;-78
2022/03/01 09:07:35;;;;;;;21.30;12.25;;;5.00;99.90;;;;;;6306041;22;20026;-78
2022/03/01 09:10:03;;;;;;;23.25;13.73;;;5.00;99.90;;;;;;6279538;22;20019;-77
2022/03/01 09:12:29;;;;;;;21.30;12.43;;;5.00;99.90;;;;;;6307290;22;20389;-78
2022/03/01 09:14:54;;;;;;;23.05;13.48;;;5.00;99.90;;;;;;6305235;22;20027;-78
2022/03/01 09:17:20;;;;;;;22.67;12.73;;;5.00;99.90;;;;;;6303929;22;20046;-78
2022/03/01 09:19:46;;;;;;;21.73;12.85;;;5.00;99.90;;;;;;6279384;22;20359;-76
2022/03/01 09:22:13;;;;;;;20.95;12.23;;;5.00;99.90;;;;;;6278385;22;20023;-78
2022/03/01 09:24:40;;;;;;;20.90;11.90;;;5.10;99.90;;;;;;6331083;22;20459;-78
2022/03/01 09:27:07;;;;;;;27.08;15.35;;;5.10;99.90;;;;;;6279373;22;20366;-78
2022/03/01 09:29:33;;;;;;;22.02;12.55;;;5.10;99.90;;;;;;6304052;22;20102;-78
2022/03/01 09:32:00;;;;;;;23.05;13.55;;;5.20;99.90;;;;;;6304309;22;20027;-78
2022/03/01 09:34:26;;;;;;;24.65;13.18;;;5.30;99.90;;;;;;6304960;22;20031;-78
2022/03/01 09:36:53;;;;;;;28.45;13.90;;;5.30;99.90;;;;;;6305030;22;20027;-77
2022/03/01 09:39:20;;;;;;;25.55;13.63;;;5.40;99.90;;;;;;6305030;22;20062;-78
2022/03/01 09:41:46;;;;;;;22.73;13.77;;;5.50;99.90;;;;;;6304911;22;20459;-78
2022/03/01 09:44:12;;;;;;;20.88;12.85;;;5.50;99.90;;;;;;6304957;22;20050;-78
2022/03/01 09:46:38;;;;;;;24.40;13.20;;;5.60;99.90;;;;;;6279048;22;20439;-78
2022/03/01 09:49:06;;;;;;;23.35;13.40;;;5.70;99.90;;;;;;6305008;22;20023;-78
2022/03/01 09:51:36;;;;;;;23.95;13.05;;;5.70;99.90;;;;;;6280167;22;20041;-77
2022/03/01 09:54:11;;;;;;;29.63;13.70;;;5.70;99.90;;;;;;6305546;22;20020;-78
2022/03/01 09:56:37;;;;;;;27.00;13.77;;;5.80;99.90;;;;;;6279455;22;20019;-78
2022/03/01 09:59:03;;;;;;;24.85;12.73;;;5.80;99.90;;;;;;6304776;22;20485;-78
2022/03/01 10:01:28;;;;;;;24.17;13.27;;;5.80;99.90;;;;;;6329902;22;20015;-78
2022/03/01 10:04:10;;;;;;;23.00;13.55;;;5.90;99.90;;;;;;6279021;22;20058;-78
2022/03/01 10:06:43;;;;;;;23.83;13.00;;;5.90;99.90;;;;;;6297811;22;20030;-76
2022/03/01 10:09:27;;;;;;;25.70;14.27;;;5.90;99.90;;;;;;6304657;22;20015;-78
2022/03/01 10:11:53;;;;;;;26.08;14.32;;;5.90;99.90;;;;;;6329404;22;20024;-77
2022/03/01 10:14:30;;;;;;;24.88;13.65;;;5.90;99.90;;;;;;6329706;22;20098;-78
2022/03/01 10:16:55;;;;;;;24.08;13.68;;;5.90;99.90;;;;;;6279073;22;20034;-78
2022/03/01 10:19:22;;;;;;;21.75;13.23;;;6.00;99.90;;;;;;6303869;22;20023;-79
2022/03/01 10:21:59;;;;;;;24.98;14.02;;;6.00;99.90;;;;;;6304803;22;20026;-77
2022/03/01 10:24:33;;;;;;;23.02;13.25;;;6.00;99.90;;;;;;6257970;22;20023;-78
2022/03/01 10:27:01;;;;;;;21.15;12.98;;;6.10;99.90;;;;;;6304494;22;20465;-78
2022/03/01 10:29:31;;;;;;;21.25;12.07;;;6.10;99.90;;;;;;6304509;22;20023;-78
2022/03/01 10:31:59;;;;;;;20.95;12.73;;;6.20;99.90;;;;;;6278062;22;20027;-78
2022/03/01 10:34:27;;;;;;;23.67;13.25;;;6.20;99.90;;;;;;6303557;22;20470;-78
2022/03/01 10:36:53;;;;;;;22.45;13.10;;;6.20;99.90;;;;;;6303750;22;20332;-78
2022/03/01 10:39:28;;;;;;;20.63;12.88;;;6.10;99.90;;;;;;6304134;22;20510;-78
2022/03/01 10:41:54;;;;;;;23.75;14.55;;;6.10;99.90;;;;;;6278581;22;20023;-78
2022/03/01 10:44:25;;;;;;;25.83;14.93;;;6.20;99.90;;;;;;6277862;22;20080;-78
2022/03/01 10:47:01;;;;;;;24.50;13.63;;;6.20;99.90;;;;;;6253689;22;20076;-78
2022/03/01 10:49:46;;;;;;;22.40;13.30;;;6.30;99.90;;;;;;6308509;22;20114;-77
2022/03/01 10:52:14;;;;;;;26.15;14.18;;;6.30;99.90;;;;;;6331257;22;20058;-77
2022/03/01 10:54:42;;;;;;;23.17;13.90;;;6.30;99.90;;;;;;6278820;22;20084;-78
2022/03/01 10:57:27;;;;;;;24.27;15.07;;;6.30;99.90;;;;;;6303339;22;20015;-78
2022/03/01 10:59:56;;;;;;;21.27;12.98;;;6.30;99.90;;;;;;6274825;22;20026;-77
2022/03/01 11:02:22;;;;;;;27.73;15.07;;;6.40;99.90;;;;;;6330023;22;20094;-78
2022/03/01 11:04:49;;;;;;;22.95;13.60;;;6.40;99.90;;;;;;6304331;22;20108;-75
2022/03/01 11:07:15;;;;;;;24.30;14.48;;;6.40;99.90;;;;;;6279058;22;20023;-78
2022/03/01 11:10:02;;;;;;;23.38;14.10;;;6.30;99.90;;;;;;6305264;22;20081;-77
2022/03/01 11:12:30;;;;;;;23.23;13.57;;;6.30;99.90;;;;;;6304181;22;20028;-78
2022/03/01 11:15:38;;;;;;;24.13;13.45;;;6.20;99.90;;;;;;6304009;22;20463;-78
2022/03/01 11:18:38;;;;;;;20.95;13.32;;;6.20;99.90;;;;;;6276580;22;20019;-77
2022/03/01 11:21:24;;;;;;;25.88;14.27;;;6.20;99.90;;;;;;6302480;22;20336;-78
2022/03/01 11:23:55;;;;;;;20.77;13.48;;;6.20;99.90;;;;;;6282688;22;20459;-78
2022/03/01 11:26:21;;;;;;;23.30;14.23;;;6.20;99.90;;;;;;6302949;22;20023;-77
2022/03/01 11:28:55;;;;;;;25.77;15.43;;;6.20;99.90;;;;;;6278187;22;20094;-76
2022/03/01 11:31:31;;;;;;;25.25;15.77;;;6.20;99.90;;;;;;6278184;22;20030;-76
2022/03/01 11:34:11;;;;;;;25.02;15.45;;;6.20;99.90;;;;;;6278303;22;20067;-76
2022/03/01 11:36:57;;;;;;;25.92;15.48;;;6.20;99.90;;;;;;6302763;22;20023;-76
2022/03/01 11:39:34;;;;;;;24.50;14.10;;;6.20;99.90;;;;;;6303663;22;20023;-75
2022/03/01 11:42:14;;;;;;;24.05;15.02;;;6.20;99.90;;;;;;6302952;22;20073;-74
2022/03/01 11:44:47;;;;;;;27.13;16.90;;;6.20;99.90;;;;;;6277529;22;20027;-75
2022/03/01 11:47:33;;;;;;;29.38;16.27;;;6.20;99.90;;;;;;6280993;22;20098;-75
2022/03/01 11:50:20;;;;;;;25.67;16.55;;;6.20;99.90;;;;;;6305590;22;20528;-75
2022/03/01 11:53:09;;;;;;;27.55;15.93;;;6.20;99.90;;;;;;6278177;22;20019;-75
2022/03/01 11:55:45;;;;;;;30.80;16.65;;;6.10;99.90;;;;;;6302526;22;20027;-76
2022/03/01 11:58:13;;;;;;;29.58;17.08;;;6.20;99.90;;;;;;6305597;22;20070;-75
2022/03/01 12:00:40;;;;;;;27.30;16.25;;;6.10;99.90;;;;;;6302318;22;20055;-75
2022/03/01 12:03:24;;;;;;;25.58;15.88;;;6.20;99.90;;;;;;6303463;22;20703;-75
2022/03/01 12:05:50;;;;;;;28.98;17.25;;;6.10;99.90;;;;;;6277867;22;20302;-75
2022/03/01 12:08:18;;;;;;;24.05;15.60;;;6.20;99.90;;;;;;6277828;22;20034;-75
2022/03/01 12:11:19;;;;;;;28.17;15.88;;;6.20;99.90;;;;;;6277868;22;20045;-75
2022/03/01 12:13:46;;;;;;;34.30;16.75;;;6.20;99.90;;;;;;6297755;22;20034;-75
2022/03/01 12:16:25;;;;;;;27.30;16.33;;;6.30;99.90;;;;;;6277890;22;20023;-75
2022/03/01 12:19:12;;;;;;;22.60;15.35;;;6.20;99.90;;;;;;6277800;22;20020;-75
2022/03/01 12:21:40;;;;;;;29.98;17.05;;;6.20;99.90;;;;;;6278596;22;20019;-75
2022/03/01 12:24:08;;;;;;;28.83;16.75;;;6.30;99.90;;;;;;6280384;22;20136;-75
2022/03/01 12:26:50;;;;;;;26.42;15.70;;;6.30;99.90;;;;;;6304643;22;20451;-75
2022/03/01 12:29:19;;;;;;;28.70;18.08;;;6.40;99.90;;;;;;6305652;22;20015;-75
2022/03/01 12:32:17;;;;;;;28.50;17.95;;;6.40;99.90;;;;;;6279000;22;20023;-76
2022/03/01 12:34:47;;;;;;;28.92;17.15;;;6.40;99.90;;;;;;6223051;22;20022;-75
2022/03/01 12:37:18;;;;;;;29.55;17.60;;;6.50;99.90;;;;;;6221604;22;20023;-75
2022/03/01 12:39:45;;;;;;;32.38;17.40;;;6.60;99.90;;;;;;6273273;22;20020;-76
2022/03/01 12:42:11;;;;;;;30.17;17.48;;;6.70;99.90;;;;;;6273254;22;20538;-76
2022/03/01 12:44:37;;;;;;;27.55;17.25;;;6.80;99.90;;;;;;6244036;22;20066;-75
2022/03/01 12:47:06;;;;;;;28.48;17.30;;;6.80;99.90;;;;;;6272317;22;20020;-76